Página principal
METAR-TAF:

METAR-TAF

Aeroportos :

Aeroporto Internacional de Bagdad

Bagdá, Iraque

latitude: 33-15-45N, longitude: 44-14-04E, altura: 35 m

Observação actual do tempo

O boletim foi feito há 18 minutos, às 11:00 UTC
Vento 12 kt de oeste, variando entre oes-sudoeste e oes-noroeste
Temperatura 41°C
Humidade 19%
Pressão 999 hPa
Visibilidade 10 km ou mais
sem nuvens abaixo de 1500 metros e sem cumulonimbus

METAR: ORBI 191100Z 27012KT 240V300 CAVOK 41/13 Q0999 NOSIG

Hora: 14:18 (11:18 UTC)

Previsão

O boletim foi feito há 7 horas e 18 minutos, às 04:00 UTC
Previsão válida de 19 às 06 UTC a 20 às 06 UTC
Vento 10 kt de oes-noroeste
Visibilidade: 8000 m

TAF: ORBI 190400Z 1906/2006 30010KT 8000 NSC

Observações e previsões do tempo de mais de 4000 aeroportos (mensagens METAR e TAF).

As estações disponíveis são os pontos amarelos e vermelhos sobre o mapa.

Mova o rato sobre o mapa para ver o nome da estação.

Depois clique no ponto para visualizar as observações e previsões meteorológicas.

Para alterar o mapa : clique nos botões verdes com uma cruz preta para aumentar o zoom; no botão verde com uma pitada de zoom; ou nas setas verdes para mapas adjacentes.


METAR-TAF: